Time;durP1;ratioP1;P1;durP2;ratioP2;P2;SDS_P1;SDS_P2;PMS_P1;PMS_P2;Temp;Humidity;BMP_temperature;BMP_pressure;BME280_temperature;BME280_humidity;BME280_pressure;Samples;Min_cycle;Max_cycle;Signal;HPM_P1;HPM_P2
2022/06/02 00:02:13;;;;;;;;;;;;;;;14.27;60.16;100034.28;107604;1274;124334;-71
2022/06/02 00:04:44;;;;;;;;;;;;;;;14.26;59.74;100023.10;106317;1274;108768;-70
2022/06/02 00:07:18;;;;;;;;;;;;;;;14.29;59.75;100022.30;106101;1274;125964;-70
2022/06/02 00:09:52;;;;;;;;;;;;;;;14.30;59.64;100025.20;106210;1274;97916;-68
2022/06/02 00:12:24;;;;;;;;;;;;;;;14.33;59.64;100031.67;106199;1274;112649;-70
2022/06/02 00:14:56;;;;;;;;;;;;;;;14.34;59.55;100044.57;107589;1274;124471;-70
2022/06/02 00:17:27;;;;;;;;;;;;;;;14.35;59.53;100049.23;107692;1274;106296;-70
2022/06/02 00:19:59;;;;;;;;;;;;;;;14.36;59.59;100049.55;107039;1274;124694;-70
2022/06/02 00:22:30;;;;;;;;;;;;;;;14.36;59.57;100049.20;106204;1274;97874;-69
2022/06/02 00:25:02;;;;;;;;;;;;;;;14.37;59.43;100049.50;106211;1274;111896;-69
2022/06/02 00:27:34;;;;;;;;;;;;;;;14.38;59.36;100052.60;106108;1274;124357;-70
2022/06/02 00:30:05;;;;;;;;;;;;;;;14.38;59.37;100044.72;106175;1274;108546;-70
2022/06/02 00:32:38;;;;;;;;;;;;;;;14.39;59.38;100045.58;106094;1274;124461;-70
2022/06/02 00:35:13;;;;;;;;;;;;;;;14.38;59.41;100051.54;106242;1274;97818;-70
2022/06/02 00:37:44;;;;;;;;;;;;;;;14.38;59.38;100055.77;106075;1274;124516;-69
2022/06/02 00:40:12;;;;;;;;;;;;;;;14.37;59.27;100055.98;106196;1274;107301;-70
2022/06/02 00:42:49;;;;;;;;;;;;;;;14.38;59.14;100059.58;106175;1274;108029;-70
2022/06/02 00:45:17;;;;;;;;;;;;;;;14.41;58.92;100055.76;106095;1274;124584;-71
2022/06/02 00:47:50;;;;;;;;;;;;;;;14.45;58.98;100057.17;106423;1274;97967;-70
2022/06/02 00:50:37;;;;;;;;;;;;;;;14.47;58.87;100059.83;106862;1274;125203;-70
2022/06/02 00:53:07;;;;;;;;;;;;;;;14.50;58.82;100067.17;107590;1274;107999;-70
2022/06/02 00:58:28;;;;;;;;;;;;;;;14.57;58.61;100079.81;107686;1274;95868;-71
2022/06/02 01:01:01;;;;;;;;;;;;;;;14.60;58.62;100088.59;106642;1274;97785;-71
2022/06/02 01:03:35;;;;;;;;;;;;;;;14.65;58.65;100093.26;106928;1274;124647;-70
2022/06/02 01:06:23;;;;;;;;;;;;;;;14.66;58.55;100097.92;106242;1274;109241;-70
2022/06/02 01:09:01;;;;;;;;;;;;;;;14.68;58.56;100104.98;107485;1274;124650;-70
2022/06/02 01:11:35;;;;;;;;;;;;;;;14.69;58.18;100090.75;107127;1276;96593;-70
2022/06/02 01:14:12;;;;;;;;;;;;;;;14.72;58.28;100089.55;107396;1274;124632;-70
2022/06/02 01:16:44;;;;;;;;;;;;;;;14.75;58.23;100094.48;107689;1274;112514;-70
2022/06/02 01:19:25;;;;;;;;;;;;;;;14.76;58.17;100103.34;107580;1274;124448;-70
2022/06/02 01:22:01;;;;;;;;;;;;;;;14.76;58.30;100102.45;107108;1276;109082;-69
2022/06/02 01:24:55;;;;;;;;;;;;;;;14.76;58.29;100097.72;106461;1274;97823;-70
2022/06/02 01:27:39;;;;;;;;;;;;;;;14.76;58.42;100104.39;105885;1281;124327;-69
2022/06/02 01:30:17;;;;;;;;;;;;;;;14.77;58.33;100096.13;106276;1281;112271;-70
2022/06/02 01:32:51;;;;;;;;;;;;;;;14.76;58.41;100092.45;106957;1280;124487;-70
2022/06/02 01:35:23;;;;;;;;;;;;;;;14.78;58.39;100086.98;106454;1281;107813;-70
2022/06/02 01:37:52;;;;;;;;;;;;;;;14.77;58.41;100078.75;106632;1281;124610;-70
2022/06/02 01:40:29;;;;;;;;;;;;;;;14.76;58.43;100063.95;107086;1281;96250;-70
2022/06/02 01:43:01;;;;;;;;;;;;;;;14.75;58.36;100072.39;107084;1281;109336;-71
2022/06/02 01:45:38;;;;;;;;;;;;;;;14.74;58.50;100073.73;106534;1280;125819;-70
2022/06/02 01:48:10;;;;;;;;;;;;;;;14.71;58.63;100069.27;106136;1281;107297;-70
2022/06/02 01:50:46;;;;;;;;;;;;;;;14.69;58.66;100075.15;106923;1280;125099;-70
2022/06/02 01:53:18;;;;;;;;;;;;;;;14.67;58.62;100072.96;106836;1281;96536;-70
2022/06/02 01:56:00;;;;;;;;;;;;;;;14.66;58.81;100057.85;105717;1281;125937;-70
2022/06/02 01:58:35;;;;;;;;;;;;;;;14.64;58.91;100048.11;105665;1281;108569;-70
2022/06/02 02:01:07;;;;;;;;;;;;;;;14.61;59.06;100052.67;105670;1284;109001;-70
2022/06/02 02:03:44;;;;;;;;;;;;;;;14.59;59.21;100047.21;105793;1278;126071;-69
2022/06/02 02:06:19;;;;;;;;;;;;;;;14.56;59.07;100041.78;106134;1274;97302;-69
2022/06/02 02:09:03;;;;;;;;;;;;;;;14.51;59.29;100030.77;106059;1274;124280;-69
2022/06/02 02:11:49;;;;;;;;;;;;;;;14.49;59.29;100012.35;106146;1274;110094;-70
2022/06/02 02:14:31;;;;;;;;;;;;;;;14.45;59.27;100003.96;106073;1274;125561;-69
2022/06/02 02:17:04;;;;;;;;;;;;;;;14.44;59.56;100009.48;106149;1274;97869;-69
2022/06/02 02:19:37;;;;;;;;;;;;;;;14.43;59.60;100004.05;106239;1276;124321;-69
2022/06/02 02:22:07;;;;;;;;;;;;;;;14.43;59.85;100020.33;107668;1274;112657;-69
2022/06/02 02:24:42;;;;;;;;;;;;;;;14.42;60.10;100031.59;107686;1273;109064;-69
2022/06/02 02:27:14;;;;;;;;;;;;;;;14.40;60.45;100040.23;106259;1274;124566;-69
2022/06/02 02:29:46;;;;;;;;;;;;;;;14.39;60.56;100039.43;106135;1274;97841;-70
2022/06/02 02:32:19;;;;;;;;;;;;;;;14.35;60.63;100039.09;106089;1274;124307;-70
2022/06/02 02:34:52;;;;;;;;;;;;;;;14.29;60.71;100043.41;106182;1274;112114;-69
2022/06/02 02:37:24;;;;;;;;;;;;;;;14.23;61.14;100048.14;106107;1274;124492;-68
2022/06/02 02:39:57;;;;;;;;;;;;;;;14.15;61.47;100051.99;106184;1274;107935;-69
2022/06/02 02:42:29;;;;;;;;;;;;;;;14.07;61.72;100056.98;106196;1274;97950;-70
2022/06/02 02:45:08;;;;;;;;;;;;;;;13.99;62.13;100065.20;106098;1274;124657;-69
2022/06/02 02:47:39;;;;;;;;;;;;;;;13.93;62.17;100085.64;107646;1274;111578;-69
2022/06/02 02:50:10;;;;;;;;;;;;;;;13.88;62.36;100100.90;106087;1274;124525;-69
2022/06/02 02:52:43;;;;;;;;;;;;;;;13.83;62.59;100114.39;106492;1274;107666;-68
2022/06/02 02:55:18;;;;;;;;;;;;;;;13.78;63.22;100128.08;106084;1274;124811;-68
2022/06/02 02:57:53;;;;;;;;;;;;;;;13.74;63.12;100136.30;107693;1274;96518;-70
2022/06/02 03:00:21;;;;;;;;;;;;;;;13.72;63.24;100137.98;106880;1274;111565;-70
2022/06/02 03:02:51;;;;;;;;;;;;;;;13.72;63.38;100135.22;106987;1274;125069;-70
2022/06/02 03:05:24;;;;;;;;;;;;;;;13.71;63.45;100140.81;106195;1274;108883;-70
2022/06/02 03:07:52;;;;;;;;;;;;;;;13.70;64.00;100146.82;106082;1274;125390;-69
2022/06/02 03:10:23;;;;;;;;;;;;;;;13.67;64.26;100155.56;106197;1274;97816;-69
2022/06/02 03:13:01;;;;;;;;;;;;;;;13.60;64.73;100159.70;106278;1274;112044;-69
2022/06/02 03:15:32;;;;;;;;;;;;;;;13.53;64.88;100164.55;106066;1274;124988;-70
2022/06/02 03:18:10;;;;;;;;;;;;;;;13.47;65.01;100178.30;106187;1274;108646;-69
2022/06/02 03:20:46;;;;;;;;;;;;;;;13.42;65.17;100185.32;106809;1274;125093;-70
2022/06/02 03:23:24;;;;;;;;;;;;;;;13.34;65.76;100184.81;106761;1274;97813;-68
2022/06/02 03:25:53;;;;;;;;;;;;;;;13.26;65.88;100172.91;106554;1274;125239;-69
2022/06/02 03:28:24;;;;;;;;;;;;;;;13.21;66.09;100179.95;107136;1274;108774;-69
2022/06/02 03:30:58;;;;;;;;;;;;;;;13.18;66.17;100187.95;106617;1274;109042;-69
2022/06/02 03:33:32;;;;;;;;;;;;;;;13.19;66.50;100193.84;106066;1274;125641;-69
2022/06/02 03:36:09;;;;;;;;;;;;;;;13.20;66.65;100199.90;106261;1274;97918;-69
2022/06/02 03:38:46;;;;;;;;;;;;;;;13.22;66.82;100206.27;106271;1274;124899;-69
2022/06/02 03:41:31;;;;;;;;;;;;;;;13.24;66.94;100217.52;106223;1274;108467;-69
2022/06/02 03:44:07;;;;;;;;;;;;;;;13.26;66.84;100202.27;107452;1274;125046;-69
2022/06/02 03:46:42;;;;;;;;;;;;;;;13.28;66.86;100178.77;107271;1274;96519;-69
2022/06/02 03:49:17;;;;;;;;;;;;;;;13.33;67.19;100167.89;106807;1274;97734;-70
2022/06/02 03:51:50;;;;;;;;;;;;;;;13.37;67.29;100163.19;106764;1274;111538;-67
2022/06/02 03:54:30;;;;;;;;;;;;;;;13.40;67.14;100164.77;106266;1275;110057;-68
2022/06/02 03:57:04;;;;;;;;;;;;;;;13.43;67.22;100167.10;106822;1274;126673;-69
2022/06/02 03:59:44;;;;;;;;;;;;;;;13.42;67.24;100171.14;107129;1274;97820;-68
2022/06/02 04:02:14;;;;;;;;;;;;;;;13.42;67.23;100169.60;106153;1275;125057;-68
2022/06/02 04:04:48;;;;;;;;;;;;;;;13.40;67.34;100169.17;107388;1274;112635;-68
2022/06/02 04:07:22;;;;;;;;;;;;;;;13.39;67.38;100172.34;107399;1274;125755;-69
2022/06/02 04:09:53;;;;;;;;;;;;;;;13.40;67.33;100178.09;106663;1276;107702;-69
2022/06/02 04:15:19;;;;;;;;;;;;;;;13.42;67.33;100185.83;106110;1276;125417;-70
2022/06/02 04:17:49;;;;;;;;;;;;;;;13.42;67.37;100192.66;107463;1274;113981;-70
2022/06/02 04:20:36;;;;;;;;;;;;;;;13.40;67.65;100195.00;107590;1274;125045;-70
2022/06/02 04:23:26;;;;;;;;;;;;;;;13.38;67.94;100207.34;106591;1274;108990;-69
2022/06/02 04:25:59;;;;;;;;;;;;;;;13.32;68.34;100200.77;107367;1274;126433;-70
2022/06/02 04:28:34;;;;;;;;;;;;;;;13.24;68.53;100202.15;107088;1274;97865;-69
2022/06/02 04:31:06;;;;;;;;;;;;;;;13.19;68.70;100198.02;107432;1274;111316;-70
2022/06/02 04:33:34;;;;;;;;;;;;;;;13.14;69.05;100193.01;107115;1274;124761;-70
2022/06/02 04:36:08;;;;;;;;;;;;;;;13.10;69.22;100197.52;106186;1274;109080;-69
2022/06/02 04:38:44;;;;;;;;;;;;;;;13.07;69.12;100194.16;107074;1274;125417;-70
2022/06/02 04:41:17;;;;;;;;;;;;;;;13.05;69.48;100196.33;107196;1274;96152;-70
2022/06/02 04:43:48;;;;;;;;;;;;;;;13.05;69.65;100198.79;106077;1274;125054;-70
2022/06/02 04:46:22;;;;;;;;;;;;;;;13.02;69.64;100202.41;106402;1274;109147;-70
2022/06/02 04:48:56;;;;;;;;;;;;;;;12.99;69.68;100209.70;106490;1274;108009;-70
2022/06/02 04:51:34;;;;;;;;;;;;;;;12.94;69.72;100207.30;106662;1274;125188;-70
2022/06/02 04:54:05;;;;;;;;;;;;;;;12.92;70.02;100207.70;106038;1276;125786;-69
2022/06/02 04:56:36;;;;;;;;;;;;;;;12.92;70.28;100206.15;106171;1276;110345;-68
2022/06/02 04:59:11;;;;;;;;;;;;;;;12.89;70.48;100205.39;106689;1276;125200;-69
2022/06/02 05:01:43;;;;;;;;;;;;;;;12.87;70.61;100200.61;106602;1276;108895;-69
2022/06/02 05:04:27;;;;;;;;;;;;;;;12.84;70.91;100194.27;106143;1275;125695;-69
2022/06/02 05:07:08;;;;;;;;;;;;;;;12.79;71.13;100192.58;106325;1277;96750;-69
2022/06/02 05:09:40;;;;;;;;;;;;;;;12.72;71.06;100194.23;106150;1276;113103;-68
2022/06/02 05:12:16;;;;;;;;;;;;;;;12.70;71.32;100196.05;106094;1276;125718;-68
2022/06/02 05:14:48;;;;;;;;;;;;;;;12.72;71.47;100196.70;106141;1276;108986;-68
2022/06/02 05:17:28;;;;;;;;;;;;;;;12.73;71.50;100197.36;106361;1276;125659;-68
2022/06/02 05:20:03;;;;;;;;;;;;;;;12.73;71.59;100200.67;107122;1276;97823;-69
2022/06/02 05:22:51;;;;;;;;;;;;;;;12.73;71.50;100195.79;106635;1276;125378;-68
2022/06/02 05:25:32;;;;;;;;;;;;;;;12.74;71.77;100186.48;106366;1276;108105;-69
2022/06/02 05:28:19;;;;;;;;;;;;;;;12.79;71.80;100189.81;106380;1276;125648;-67
2022/06/02 05:31:04;;;;;;;;;;;;;;;12.81;72.23;100194.23;106469;1276;97918;-69
2022/06/02 05:33:45;;;;;;;;;;;;;;;12.78;72.48;100188.95;106404;1276;98272;-69
2022/06/02 05:36:29;;;;;;;;;;;;;;;12.72;72.77;100180.98;106091;1276;125408;-69
2022/06/02 05:39:03;;;;;;;;;;;;;;;12.66;72.99;100179.33;106268;1276;108439;-69
2022/06/02 05:41:44;;;;;;;;;;;;;;;12.61;73.21;100179.02;106076;1276;125071;-69
2022/06/02 05:44:20;;;;;;;;;;;;;;;12.55;73.64;100174.19;106283;1276;97842;-67
2022/06/02 05:47:04;;;;;;;;;;;;;;;12.51;73.79;100181.16;106198;1276;125410;-70
2022/06/02 05:49:35;;;;;;;;;;;;;;;12.49;74.12;100185.45;106452;1276;112671;-69
2022/06/02 05:52:05;;;;;;;;;;;;;;;12.45;74.01;100184.20;106106;1276;126329;-68
2022/06/02 05:54:39;;;;;;;;;;;;;;;12.41;74.37;100180.72;106450;1276;109160;-70
2022/06/02 05:57:13;;;;;;;;;;;;;;;12.37;74.30;100184.68;106268;1275;98163;-69
2022/06/02 05:59:52;;;;;;;;;;;;;;;12.36;74.54;100191.35;106913;1276;125285;-70
2022/06/02 06:02:42;;;;;;;;;;;;;;;12.32;74.84;100196.23;106254;1276;111895;-71
2022/06/02 06:05:14;;;;;;;;;;;;;;;12.30;75.16;100202.78;106028;1276;126180;-69
2022/06/02 06:07:48;;;;;;;;;;;;;;;12.28;75.08;100211.23;106424;1276;107781;-69
2022/06/02 06:10:20;;;;;;;;;;;;;;;12.28;75.25;100218.70;106062;1276;125403;-69
2022/06/02 06:13:01;;;;;;;;;;;;;;;12.32;75.29;100218.57;107213;1276;95994;-69
2022/06/02 06:15:37;;;;;;;;;;;;;;;12.36;75.08;100213.17;106514;1276;112059;-69
2022/06/02 06:18:13;;;;;;;;;;;;;;;12.47;75.49;100209.94;106309;1276;125035;-69
2022/06/02 06:20:50;;;;;;;;;;;;;;;12.61;75.35;100205.33;106097;1276;108759;-70
2022/06/02 06:23:38;;;;;;;;;;;;;;;12.91;75.18;100193.80;106098;1276;125218;-70
2022/06/02 06:26:15;;;;;;;;;;;;;;;15.13;74.36;100188.51;106214;1276;97840;-70
2022/06/02 06:28:48;;;;;;;;;;;;;;;18.09;70.30;100196.85;106478;1276;125032;-69
2022/06/02 06:31:21;;;;;;;;;;;;;;;20.80;64.36;100194.54;106537;1276;109330;-69
2022/06/02 06:33:52;;;;;;;;;;;;;;;22.84;59.00;100191.79;106160;1276;107329;-69
2022/06/02 06:36:28;;;;;;;;;;;;;;;24.45;54.41;100190.35;106161;1276;124126;-69
2022/06/02 06:39:06;;;;;;;;;;;;;;;26.00;51.62;100179.96;106389;1277;97645;-70
2022/06/02 06:41:57;;;;;;;;;;;;;;;27.51;48.99;100179.36;106201;1276;124813;-69
2022/06/02 06:44:25;;;;;;;;;;;;;;;28.91;46.50;100182.05;106181;1276;109013;-70
2022/06/02 06:46:56;;;;;;;;;;;;;;;29.90;43.35;100183.16;106365;1276;124872;-69
2022/06/02 06:49:40;;;;;;;;;;;;;;;30.59;41.51;100177.23;106481;1275;99051;-69
2022/06/02 06:52:15;;;;;;;;;;;;;;;31.80;40.46;100179.43;106469;1276;124750;-69
2022/06/02 06:54:52;;;;;;;;;;;;;;;32.66;38.37;100182.81;107582;1276;112367;-69
2022/06/02 06:57:25;;;;;;;;;;;;;;;32.30;36.98;100186.37;106149;1277;108954;-67
2022/06/02 06:59:58;;;;;;;;;;;;;;;31.68;36.72;100194.55;107124;1276;125390;-69
2022/06/02 07:02:32;;;;;;;;;;;;;;;31.36;36.74;100193.26;106455;1276;97911;-68
2022/06/02 07:05:02;;;;;;;;;;;;;;;31.32;36.16;100194.86;106253;1276;124156;-70
2022/06/02 07:07:36;;;;;;;;;;;;;;;31.04;36.04;100194.40;106254;1276;112061;-69
2022/06/02 07:10:06;;;;;;;;;;;;;;;30.54;36.21;100198.34;106810;1276;124577;-68
2022/06/02 07:12:53;;;;;;;;;;;;;;;29.78;36.35;100201.38;107530;1276;108706;-69
2022/06/02 07:15:27;;;;;;;;;;;;;;;28.82;36.76;100206.73;106126;1276;97849;-68
2022/06/02 07:18:00;;;;;;;;;;;;;;;27.99;37.21;100208.98;106205;1276;124290;-68
2022/06/02 07:20:42;;;;;;;;;;;;;;;27.17;37.93;100210.54;106441;1276;112505;-69
2022/06/02 07:23:13;;;;;;;;;;;;;;;26.50;38.86;100218.39;106578;1276;124469;-69
2022/06/02 07:25:44;;;;;;;;;;;;;;;26.08;38.83;100223.56;106207;1276;108956;-68
2022/06/02 07:28:17;;;;;;;;;;;;;;;25.48;39.02;100228.98;106630;1275;124634;-67
2022/06/02 07:30:51;;;;;;;;;;;;;;;24.87;39.65;100237.02;106229;1276;97914;-68
2022/06/02 07:33:26;;;;;;;;;;;;;;;25.05;40.81;100234.59;106626;1276;112469;-69
2022/06/02 07:36:17;;;;;;;;;;;;;;;26.37;40.56;100234.33;106447;1276;124395;-69
2022/06/02 07:39:05;;;;;;;;;;;;;;;26.96;39.16;100233.09;106248;1276;108893;-69
2022/06/02 07:41:39;;;;;;;;;;;;;;;26.39;38.20;100237.71;105705;1281;126474;-69
2022/06/02 07:44:14;;;;;;;;;;;;;;;26.28;38.67;100243.21;105972;1281;97859;-68
2022/06/02 07:47:08;;;;;;;;;;;;;;;26.82;38.65;100252.42;106168;1280;125493;-69
2022/06/02 07:49:47;;;;;;;;;;;;;;;27.06;37.85;100254.14;106039;1281;109223;-70
2022/06/02 07:52:18;;;;;;;;;;;;;;;26.88;37.83;100255.97;106192;1281;124980;-68
2022/06/02 07:54:51;;;;;;;;;;;;;;;26.13;38.08;100260.66;106195;1279;97809;-69
2022/06/02 07:57:24;;;;;;;;;;;;;;;25.30;38.62;100268.04;105996;1281;97848;-69
2022/06/02 07:59:59;;;;;;;;;;;;;;;24.46;39.48;100271.48;105751;1281;124232;-68
2022/06/02 08:02:39;;;;;;;;;;;;;;;23.72;40.69;100282.23;106133;1279;108130;-69
2022/06/02 08:05:13;;;;;;;;;;;;;;;22.86;41.85;100279.48;106378;1280;124385;-69
2022/06/02 08:07:44;;;;;;;;;;;;;;;21.87;42.98;100277.64;106002;1281;97822;-68
2022/06/02 08:10:16;;;;;;;;;;;;;;;21.02;44.16;100286.11;106220;1280;124917;-69
2022/06/02 08:12:48;;;;;;;;;;;;;;;20.46;45.63;100303.32;106031;1281;112014;-70
2022/06/02 08:15:23;;;;;;;;;;;;;;;20.08;46.73;100311.50;107166;1279;107063;-69
2022/06/02 08:17:56;;;;;;;;;;;;;;;19.70;47.11;100308.36;105850;1281;124437;-70
2022/06/02 08:20:33;;;;;;;;;;;;;;;19.32;47.71;100319.21;106056;1277;97863;-71
2022/06/02 08:23:11;;;;;;;;;;;;;;;18.92;48.33;100333.69;105977;1277;125198;-69
2022/06/02 08:25:44;;;;;;;;;;;;;;;18.59;48.83;100338.58;106147;1276;112778;-71
2022/06/02 08:28:25;;;;;;;;;;;;;;;18.37;49.52;100337.89;106433;1276;124619;-69
2022/06/02 08:31:01;;;;;;;;;;;;;;;18.16;49.88;100344.31;106422;1276;109023;-67
2022/06/02 08:33:39;;;;;;;;;;;;;;;18.10;50.26;100342.77;106155;1276;98649;-70
2022/06/02 08:36:10;;;;;;;;;;;;;;;18.31;50.39;100344.05;106035;1276;124289;-69
2022/06/02 08:38:46;;;;;;;;;;;;;;;18.66;50.11;100343.63;106141;1276;112152;-69
2022/06/02 08:41:36;;;;;;;;;;;;;;;18.99;49.52;100340.78;106380;1276;124439;-69
2022/06/02 08:44:23;;;;;;;;;;;;;;;19.20;49.39;100339.91;106160;1276;108470;-69
2022/06/02 08:47:10;;;;;;;;;;;;;;;19.19;48.61;100338.93;106165;1277;124497;-70
2022/06/02 08:49:59;;;;;;;;;;;;;;;19.07;48.69;100344.00;106385;1276;97850;-69
2022/06/02 08:52:57;;;;;;;;;;;;;;;18.93;48.90;100339.98;106041;1276;124885;-70
2022/06/02 08:55:41;;;;;;;;;;;;;;;19.11;48.74;100328.20;105925;1281;108654;-71
2022/06/02 08:58:39;;;;;;;;;;;;;;;19.44;47.82;100336.23;105516;1282;125064;-70
2022/06/02 09:01:11;;;;;;;;;;;;;;;19.41;47.36;100334.46;105749;1281;97891;-70
2022/06/02 09:03:56;;;;;;;;;;;;;;;19.27;47.06;100329.60;106926;1281;95824;-68
2022/06/02 09:06:41;;;;;;;;;;;;;;;18.99;47.30;100347.00;105784;1281;124297;-68
2022/06/02 09:09:23;;;;;;;;;;;;;;;18.75;47.70;100349.08;105860;1281;109130;-69
2022/06/02 09:12:11;;;;;;;;;;;;;;;18.62;48.29;100362.38;105637;1282;126113;-69
2022/06/02 09:14:58;;;;;;;;;;;;;;;18.58;48.85;100360.17;105849;1281;97907;-70
2022/06/02 09:17:29;;;;;;;;;;;;;;;18.85;49.52;100364.13;105816;1281;124191;-68
2022/06/02 09:20:12;;;;;;;;;;;;;;;19.21;48.85;100361.39;106053;1281;111538;-68
2022/06/02 09:22:51;;;;;;;;;;;;;;;19.41;48.39;100356.02;106018;1281;124853;-69
2022/06/02 09:25:28;;;;;;;;;;;;;;;19.54;47.91;100353.02;105869;1281;107677;-69
2022/06/02 09:28:13;;;;;;;;;;;;;;;19.65;46.98;100349.42;105924;1281;97867;-69
2022/06/02 09:30:50;;;;;;;;;;;;;;;19.79;46.05;100349.15;106402;1276;97722;-70
2022/06/02 09:33:34;;;;;;;;;;;;;;;20.09;45.44;100343.06;106252;1276;111564;-69
2022/06/02 09:36:10;;;;;;;;;;;;;;;20.46;45.63;100334.59;106200;1276;125023;-68
2022/06/02 09:38:44;;;;;;;;;;;;;;;21.45;44.96;100334.69;106166;1276;109151;-69
2022/06/02 09:41:28;;;;;;;;;;;;;;;22.64;43.39;100337.05;106089;1276;124558;-69
2022/06/02 09:44:03;;;;;;;;;;;;;;;23.49;41.36;100331.05;106130;1277;98874;-69
2022/06/02 09:46:45;;;;;;;;;;;;;;;24.20;40.14;100336.86;106088;1276;124397;-69
2022/06/02 09:49:27;;;;;;;;;;;;;;;24.91;38.76;100335.15;106105;1277;108620;-69
2022/06/02 09:52:01;;;;;;;;;;;;;;;25.51;37.28;100337.52;106129;1276;107795;-69
2022/06/02 09:54:42;;;;;;;;;;;;;;;25.90;36.21;100338.44;106568;1276;97846;-69
2022/06/02 10:00:30;;;;;;;;;;;;;;;26.89;34.39;100329.52;106048;1276;124338;-68
2022/06/02 10:03:07;;;;;;;;;;;;;;;27.07;33.96;100327.59;106144;1276;108573;-69
2022/06/02 10:05:49;;;;;;;;;;;;;;;27.58;34.23;100321.36;106052;1276;124415;-70
2022/06/02 10:08:24;;;;;;;;;;;;;;;28.11;33.35;100326.92;106147;1276;97828;-70
2022/06/02 10:10:59;;;;;;;;;;;;;;;28.05;31.32;100325.11;106117;1276;124245;-69
2022/06/02 10:13:59;;;;;;;;;;;;;;;28.07;31.89;100327.57;106154;1276;111846;-69
2022/06/02 10:16:47;;;;;;;;;;;;;;;28.38;31.32;100334.02;106299;1276;124526;-69
2022/06/02 10:19:32;;;;;;;;;;;;;;;28.66;31.02;100336.84;106331;1277;107731;-67
2022/06/02 10:22:05;;;;;;;;;;;;;;;28.80;30.73;100331.64;106177;1276;97842;-68
2022/06/02 10:25:04;;;;;;;;;;;;;;;28.84;30.71;100334.02;106341;1276;97820;-68
2022/06/02 10:28:01;;;;;;;;;;;;;;;28.86;30.15;100330.13;106171;1276;110324;-68
2022/06/02 10:30:43;;;;;;;;;;;;;;;28.67;30.21;100340.73;106177;1276;108988;-69
2022/06/02 10:33:28;;;;;;;;;;;;;;;28.37;29.70;100340.33;106134;1276;108505;-69
2022/06/02 10:36:35;;;;;;;;;;;;;;;27.98;29.83;100340.05;106029;1277;125270;-68
2022/06/02 10:39:09;;;;;;;;;;;;;;;27.77;30.28;100338.05;105769;1281;97767;-68
2022/06/02 10:41:49;;;;;;;;;;;;;;;27.60;30.76;100337.89;105783;1281;124283;-69
2022/06/02 10:44:19;;;;;;;;;;;;;;;27.37;30.59;100338.14;105567;1281;467994;-68
2022/06/02 10:47:07;;;;;;;;;;;;;;;27.11;30.94;100334.73;105809;1281;124774;-69
2022/06/02 10:49:36;;;;;;;;;;;;;;;26.98;31.10;100337.96;105935;1281;97984;-68
2022/06/02 10:52:27;;;;;;;;;;;;;;;26.73;31.25;100338.46;105834;1281;124723;-68
2022/06/02 10:55:12;;;;;;;;;;;;;;;26.16;31.37;100338.86;105778;1281;112722;-69
2022/06/02 10:57:55;;;;;;;;;;;;;;;25.65;32.22;100332.58;105798;1281;107832;-68
2022/06/02 11:00:38;;;;;;;;;;;;;;;25.42;32.50;100331.91;105523;1281;126346;-68
2022/06/02 11:03:22;;;;;;;;;;;;;;;25.43;33.19;100328.84;105790;1281;98086;-69
2022/06/02 11:06:23;;;;;;;;;;;;;;;25.50;33.00;100332.27;106185;1281;125359;-68
2022/06/02 11:09:09;;;;;;;;;;;;;;;25.30;32.67;100341.75;106034;1281;112655;-68
2022/06/02 11:11:54;;;;;;;;;;;;;;;25.19;33.04;100338.47;106053;1276;124428;-68
2022/06/02 11:14:41;;;;;;;;;;;;;;;24.96;33.02;100345.17;106119;1276;107447;-68
2022/06/02 11:17:22;;;;;;;;;;;;;;;24.70;33.41;100344.17;106066;1276;124549;-68
2022/06/02 11:20:07;;;;;;;;;;;;;;;24.47;33.49;100346.36;106090;1276;97908;-68
2022/06/02 11:22:57;;;;;;;;;;;;;;;23.98;33.56;100348.40;106258;1276;124559;-71
2022/06/02 11:25:56;;;;;;;;;;;;;;;23.42;34.16;100345.66;106158;1276;108976;-69
2022/06/02 11:28:47;;;;;;;;;;;;;;;23.26;34.40;100347.79;106225;1276;125505;-68
2022/06/02 11:31:30;;;;;;;;;;;;;;;23.07;34.19;100347.53;107335;1277;96077;-69
2022/06/02 11:34:08;;;;;;;;;;;;;;;22.76;34.11;100354.40;106874;1276;97944;-69
2022/06/02 11:36:52;;;;;;;;;;;;;;;22.68;34.46;100359.66;106327;1276;112501;-69
2022/06/02 11:39:36;;;;;;;;;;;;;;;22.76;34.33;100360.66;106132;1276;107377;-68
2022/06/02 11:42:11;;;;;;;;;;;;;;;22.84;34.06;100357.98;106037;1276;125257;-69
2022/06/02 11:44:44;;;;;;;;;;;;;;;22.88;34.03;100360.15;106111;1276;97872;-69
2022/06/02 11:47:24;;;;;;;;;;;;;;;22.64;34.23;100367.39;106073;1276;124186;-68
2022/06/02 11:50:10;;;;;;;;;;;;;;;22.43;34.47;100370.88;106222;1276;112245;-69
2022/06/02 11:52:55;;;;;;;;;;;;;;;22.45;34.89;100367.64;106297;1276;126019;-69
2022/06/02 11:55:27;;;;;;;;;;;;;;;22.43;35.23;100373.33;106141;1276;109177;-69
2022/06/02 11:58:24;;;;;;;;;;;;;;;22.42;35.58;100373.21;106124;1276;97821;-69
2022/06/02 12:01:13;;;;;;;;;;;;;;;22.45;35.58;100366.29;106271;1278;98527;-67
2022/06/02 12:04:02;;;;;;;;;;;;;;;22.59;35.82;100371.51;106144;1276;112024;-69
2022/06/02 12:06:52;;;;;;;;;;;;;;;22.68;34.59;100371.11;106953;1276;109010;-69
2022/06/02 12:09:33;;;;;;;;;;;;;;;22.59;34.75;100368.34;106498;1276;107833;-69
2022/06/02 12:12:10;;;;;;;;;;;;;;;22.61;35.26;100376.10;106529;1275;125665;-68
2022/06/02 12:14:51;;;;;;;;;;;;;;;22.73;35.29;100377.77;106230;1276;97723;-69
2022/06/02 12:17:28;;;;;;;;;;;;;;;22.81;35.59;100379.32;106034;1276;126317;-69
2022/06/02 12:20:06;;;;;;;;;;;;;;;22.80;35.74;100384.31;106170;1276;107438;-69
2022/06/02 12:22:51;;;;;;;;;;;;;;;22.87;36.34;100386.09;106240;1276;124530;-69
2022/06/02 12:25:34;;;;;;;;;;;;;;;22.93;35.27;100377.07;106417;1276;97865;-69
2022/06/02 12:28:12;;;;;;;;;;;;;;;22.84;35.08;100382.05;106180;1276;97948;-69
2022/06/02 12:30:49;;;;;;;;;;;;;;;22.72;34.90;100378.93;106286;1276;112588;-70
2022/06/02 12:33:30;;;;;;;;;;;;;;;22.59;34.90;100383.92;106456;1276;108908;-70
2022/06/02 12:36:12;;;;;;;;;;;;;;;22.45;35.01;100388.55;106127;1276;124514;-69
2022/06/02 12:38:53;;;;;;;;;;;;;;;22.30;35.20;100388.52;106178;1276;97854;-69
2022/06/02 12:41:26;;;;;;;;;;;;;;;22.23;35.27;100390.09;106723;1276;124656;-70
2022/06/02 12:44:18;;;;;;;;;;;;;;;22.14;34.86;100383.20;106497;1276;112021;-70
2022/06/02 12:47:03;;;;;;;;;;;;;;;22.00;35.16;100384.48;106112;1276;125085;-69
2022/06/02 12:49:54;;;;;;;;;;;;;;;22.00;35.76;100387.45;106214;1276;108945;-69
2022/06/02 12:52:33;;;;;;;;;;;;;;;22.03;35.68;100387.79;106096;1276;124655;-69
2022/06/02 12:55:24;;;;;;;;;;;;;;;21.98;35.85;100380.23;106157;1276;97828;-69
2022/06/02 12:58:04;;;;;;;;;;;;;;;21.99;36.02;100383.35;106150;1277;111668;-68
2022/06/02 13:00:37;;;;;;;;;;;;;;;22.00;36.06;100384.75;106405;1276;108338;-69
2022/06/02 13:03:28;;;;;;;;;;;;;;;21.99;35.82;100380.98;106196;1276;108826;-68
2022/06/02 13:06:06;;;;;;;;;;;;;;;21.94;35.60;100379.28;106076;1276;124348;-69
2022/06/02 13:08:54;;;;;;;;;;;;;;;21.89;36.18;100377.38;106443;1276;97851;-69
2022/06/02 13:11:36;;;;;;;;;;;;;;;21.88;36.24;100375.52;106207;1276;125866;-70
2022/06/02 13:14:11;;;;;;;;;;;;;;;21.87;36.46;100376.48;106117;1276;108276;-69
2022/06/02 13:16:53;;;;;;;;;;;;;;;21.84;36.75;100378.48;106226;1278;124584;-69
2022/06/02 13:19:32;;;;;;;;;;;;;;;21.82;36.53;100375.08;106451;1276;97827;-69
2022/06/02 13:22:17;;;;;;;;;;;;;;;21.81;36.26;100374.98;106574;1275;97823;-70
2022/06/02 13:24:54;;;;;;;;;;;;;;;21.75;36.26;100380.74;106105;1278;111151;-68